sensor_id;sensor_type;location;lat;lon;timestamp;P1;durP1;ratioP1;P2;durP2;ratioP2
40515;SDS011;26216;53.724;9.898;2024-03-08T00:00:08;16.38;;;10.75;;
40515;SDS011;26216;53.724;9.898;2024-03-08T00:02:38;15.38;;;10.20;;
40515;SDS011;26216;53.724;9.898;2024-03-08T00:05:05;16.50;;;10.07;;
40515;SDS011;26216;53.724;9.898;2024-03-08T00:07:31;18.52;;;9.65;;
40515;SDS011;26216;53.724;9.898;2024-03-08T00:09:57;15.75;;;9.60;;
40515;SDS011;26216;53.724;9.898;2024-03-08T00:12:24;15.65;;;9.73;;
40515;SDS011;26216;53.724;9.898;2024-03-08T00:14:52;13.25;;;9.00;;
40515;SDS011;26216;53.724;9.898;2024-03-08T00:17:20;17.02;;;9.57;;
40515;SDS011;26216;53.724;9.898;2024-03-08T00:19:48;14.65;;;10.23;;
40515;SDS011;26216;53.724;9.898;2024-03-08T00:22:15;16.30;;;9.85;;
40515;SDS011;26216;53.724;9.898;2024-03-08T00:24:41;17.23;;;10.98;;
40515;SDS011;26216;53.724;9.898;2024-03-08T00:27:08;13.68;;;8.98;;
40515;SDS011;26216;53.724;9.898;2024-03-08T00:29:34;13.43;;;9.25;;
40515;SDS011;26216;53.724;9.898;2024-03-08T00:32:00;15.80;;;10.27;;
40515;SDS011;26216;53.724;9.898;2024-03-08T00:34:26;16.45;;;10.30;;
40515;SDS011;26216;53.724;9.898;2024-03-08T00:36:52;14.75;;;9.75;;
40515;SDS011;26216;53.724;9.898;2024-03-08T00:39:18;16.58;;;10.80;;
40515;SDS011;26216;53.724;9.898;2024-03-08T00:41:47;16.17;;;11.18;;
40515;SDS011;26216;53.724;9.898;2024-03-08T00:44:13;17.05;;;10.10;;
40515;SDS011;26216;53.724;9.898;2024-03-08T00:46:40;16.00;;;10.63;;
40515;SDS011;26216;53.724;9.898;2024-03-08T00:49:06;14.13;;;9.25;;
40515;SDS011;26216;53.724;9.898;2024-03-08T00:51:32;15.75;;;9.70;;
40515;SDS011;26216;53.724;9.898;2024-03-08T00:53:57;16.05;;;9.52;;
40515;SDS011;26216;53.724;9.898;2024-03-08T00:56:23;16.70;;;10.10;;
40515;SDS011;26216;53.724;9.898;2024-03-08T00:58:50;13.60;;;9.77;;
40515;SDS011;26216;53.724;9.898;2024-03-08T01:01:17;14.48;;;9.70;;
40515;SDS011;26216;53.724;9.898;2024-03-08T01:03:43;14.55;;;9.18;;
40515;SDS011;26216;53.724;9.898;2024-03-08T01:06:09;16.75;;;9.75;;
40515;SDS011;26216;53.724;9.898;2024-03-08T01:08:37;15.30;;;9.75;;
40515;SDS011;26216;53.724;9.898;2024-03-08T01:11:07;13.65;;;9.10;;
40515;SDS011;26216;53.724;9.898;2024-03-08T01:13:34;17.63;;;9.90;;
40515;SDS011;26216;53.724;9.898;2024-03-08T01:16:01;16.23;;;9.40;;
40515;SDS011;26216;53.724;9.898;2024-03-08T01:18:27;17.02;;;10.52;;
40515;SDS011;26216;53.724;9.898;2024-03-08T01:20:53;18.55;;;11.38;;
40515;SDS011;26216;53.724;9.898;2024-03-08T01:23:19;16.17;;;9.88;;
40515;SDS011;26216;53.724;9.898;2024-03-08T01:25:44;15.70;;;9.98;;
40515;SDS011;26216;53.724;9.898;2024-03-08T01:28:10;12.52;;;7.90;;
40515;SDS011;26216;53.724;9.898;2024-03-08T01:30:38;14.88;;;9.23;;
40515;SDS011;26216;53.724;9.898;2024-03-08T01:33:03;15.00;;;9.73;;
40515;SDS011;26216;53.724;9.898;2024-03-08T01:35:29;17.63;;;10.45;;
40515;SDS011;26216;53.724;9.898;2024-03-08T01:37:56;16.67;;;10.35;;
40515;SDS011;26216;53.724;9.898;2024-03-08T01:40:23;15.32;;;8.95;;
40515;SDS011;26216;53.724;9.898;2024-03-08T01:42:52;13.68;;;9.13;;
40515;SDS011;26216;53.724;9.898;2024-03-08T01:45:19;16.33;;;9.63;;
40515;SDS011;26216;53.724;9.898;2024-03-08T01:47:44;15.13;;;8.98;;
40515;SDS011;26216;53.724;9.898;2024-03-08T01:50:13;17.55;;;9.80;;
40515;SDS011;26216;53.724;9.898;2024-03-08T01:52:41;14.25;;;8.93;;
40515;SDS011;26216;53.724;9.898;2024-03-08T01:55:07;16.38;;;9.75;;
40515;SDS011;26216;53.724;9.898;2024-03-08T01:57:33;14.15;;;9.52;;
40515;SDS011;26216;53.724;9.898;2024-03-08T02:00:00;15.57;;;9.38;;
40515;SDS011;26216;53.724;9.898;2024-03-08T02:02:33;16.40;;;10.40;;
40515;SDS011;26216;53.724;9.898;2024-03-08T02:05:03;17.83;;;9.90;;
40515;SDS011;26216;53.724;9.898;2024-03-08T02:07:30;14.48;;;9.38;;
40515;SDS011;26216;53.724;9.898;2024-03-08T02:09:56;16.38;;;9.75;;
40515;SDS011;26216;53.724;9.898;2024-03-08T02:12:22;13.85;;;9.13;;
40515;SDS011;26216;53.724;9.898;2024-03-08T02:14:48;13.63;;;8.23;;
40515;SDS011;26216;53.724;9.898;2024-03-08T02:17:14;15.65;;;9.05;;
40515;SDS011;26216;53.724;9.898;2024-03-08T02:19:40;14.07;;;9.23;;
40515;SDS011;26216;53.724;9.898;2024-03-08T02:22:06;16.58;;;10.00;;
40515;SDS011;26216;53.724;9.898;2024-03-08T02:24:32;14.43;;;8.77;;
40515;SDS011;26216;53.724;9.898;2024-03-08T02:26:58;14.90;;;8.73;;
40515;SDS011;26216;53.724;9.898;2024-03-08T02:29:24;14.57;;;8.85;;
40515;SDS011;26216;53.724;9.898;2024-03-08T02:31:51;14.70;;;8.85;;
40515;SDS011;26216;53.724;9.898;2024-03-08T02:34:17;15.32;;;9.43;;
40515;SDS011;26216;53.724;9.898;2024-03-08T02:36:42;14.98;;;9.32;;
40515;SDS011;26216;53.724;9.898;2024-03-08T02:39:08;14.93;;;8.70;;
40515;SDS011;26216;53.724;9.898;2024-03-08T02:41:35;16.00;;;9.35;;
40515;SDS011;26216;53.724;9.898;2024-03-08T02:44:01;15.63;;;9.52;;
40515;SDS011;26216;53.724;9.898;2024-03-08T02:46:29;14.85;;;9.60;;
40515;SDS011;26216;53.724;9.898;2024-03-08T02:48:55;16.30;;;10.02;;
40515;SDS011;26216;53.724;9.898;2024-03-08T02:51:21;16.52;;;9.82;;
40515;SDS011;26216;53.724;9.898;2024-03-08T02:53:47;16.55;;;9.65;;
40515;SDS011;26216;53.724;9.898;2024-03-08T02:56:14;17.63;;;10.07;;
40515;SDS011;26216;53.724;9.898;2024-03-08T02:58:42;15.85;;;9.48;;
40515;SDS011;26216;53.724;9.898;2024-03-08T03:01:08;16.27;;;9.70;;
40515;SDS011;26216;53.724;9.898;2024-03-08T03:03:35;15.13;;;9.70;;
40515;SDS011;26216;53.724;9.898;2024-03-08T03:06:02;14.20;;;8.93;;
40515;SDS011;26216;53.724;9.898;2024-03-08T03:08:28;16.27;;;9.88;;
40515;SDS011;26216;53.724;9.898;2024-03-08T03:10:53;19.35;;;11.00;;
40515;SDS011;26216;53.724;9.898;2024-03-08T03:13:21;17.35;;;10.27;;
40515;SDS011;26216;53.724;9.898;2024-03-08T03:15:48;15.75;;;9.13;;
40515;SDS011;26216;53.724;9.898;2024-03-08T03:18:14;15.60;;;10.07;;
40515;SDS011;26216;53.724;9.898;2024-03-08T03:20:40;18.50;;;10.27;;
40515;SDS011;26216;53.724;9.898;2024-03-08T03:23:08;18.83;;;11.30;;
40515;SDS011;26216;53.724;9.898;2024-03-08T03:25:34;17.50;;;10.10;;
40515;SDS011;26216;53.724;9.898;2024-03-08T03:28:01;17.13;;;9.98;;
40515;SDS011;26216;53.724;9.898;2024-03-08T03:30:27;16.35;;;10.10;;
40515;SDS011;26216;53.724;9.898;2024-03-08T03:32:58;18.00;;;10.40;;
40515;SDS011;26216;53.724;9.898;2024-03-08T03:35:26;18.67;;;10.50;;
40515;SDS011;26216;53.724;9.898;2024-03-08T03:37:52;15.57;;;9.15;;
40515;SDS011;26216;53.724;9.898;2024-03-08T03:40:32;17.50;;;10.13;;
40515;SDS011;26216;53.724;9.898;2024-03-08T03:42:58;16.17;;;9.50;;
40515;SDS011;26216;53.724;9.898;2024-03-08T03:45:24;16.83;;;9.55;;
40515;SDS011;26216;53.724;9.898;2024-03-08T03:47:50;17.30;;;10.35;;
40515;SDS011;26216;53.724;9.898;2024-03-08T03:50:20;15.98;;;9.10;;
40515;SDS011;26216;53.724;9.898;2024-03-08T03:52:47;16.45;;;9.57;;
40515;SDS011;26216;53.724;9.898;2024-03-08T03:55:13;17.30;;;9.77;;
40515;SDS011;26216;53.724;9.898;2024-03-08T03:57:40;15.48;;;9.38;;
40515;SDS011;26216;53.724;9.898;2024-03-08T04:00:06;15.60;;;10.40;;
40515;SDS011;26216;53.724;9.898;2024-03-08T04:02:37;17.50;;;9.98;;
40515;SDS011;26216;53.724;9.898;2024-03-08T04:05:04;16.45;;;9.73;;
40515;SDS011;26216;53.724;9.898;2024-03-08T04:07:33;16.65;;;9.20;;
40515;SDS011;26216;53.724;9.898;2024-03-08T04:10:00;16.73;;;10.60;;
40515;SDS011;26216;53.724;9.898;2024-03-08T04:14:59;15.88;;;9.55;;
40515;SDS011;26216;53.724;9.898;2024-03-08T04:17:25;16.30;;;9.02;;
40515;SDS011;26216;53.724;9.898;2024-03-08T04:19:52;16.10;;;9.52;;
40515;SDS011;26216;53.724;9.898;2024-03-08T04:22:18;15.60;;;9.75;;
40515;SDS011;26216;53.724;9.898;2024-03-08T04:24:44;14.40;;;9.13;;
40515;SDS011;26216;53.724;9.898;2024-03-08T04:27:11;15.38;;;9.30;;
40515;SDS011;26216;53.724;9.898;2024-03-08T04:29:37;17.35;;;10.60;;
40515;SDS011;26216;53.724;9.898;2024-03-08T04:32:03;16.48;;;9.68;;
40515;SDS011;26216;53.724;9.898;2024-03-08T04:34:30;14.43;;;9.07;;
40515;SDS011;26216;53.724;9.898;2024-03-08T04:36:57;14.65;;;9.05;;
40515;SDS011;26216;53.724;9.898;2024-03-08T04:39:23;13.60;;;8.88;;
40515;SDS011;26216;53.724;9.898;2024-03-08T04:41:49;19.02;;;9.15;;
40515;SDS011;26216;53.724;9.898;2024-03-08T04:44:16;19.27;;;10.77;;
40515;SDS011;26216;53.724;9.898;2024-03-08T04:46:42;16.58;;;9.35;;
40515;SDS011;26216;53.724;9.898;2024-03-08T04:49:09;15.57;;;9.50;;
40515;SDS011;26216;53.724;9.898;2024-03-08T04:51:37;16.83;;;10.18;;
40515;SDS011;26216;53.724;9.898;2024-03-08T04:54:02;16.05;;;9.80;;
40515;SDS011;26216;53.724;9.898;2024-03-08T04:56:30;19.67;;;10.60;;
40515;SDS011;26216;53.724;9.898;2024-03-08T04:58:56;16.67;;;10.02;;
40515;SDS011;26216;53.724;9.898;2024-03-08T05:01:22;18.02;;;9.88;;
40515;SDS011;26216;53.724;9.898;2024-03-08T05:03:48;16.15;;;10.18;;
40515;SDS011;26216;53.724;9.898;2024-03-08T05:06:18;15.10;;;9.40;;
40515;SDS011;26216;53.724;9.898;2024-03-08T05:08:46;19.23;;;10.80;;
40515;SDS011;26216;53.724;9.898;2024-03-08T05:11:11;15.75;;;9.68;;
40515;SDS011;26216;53.724;9.898;2024-03-08T05:13:40;16.27;;;10.05;;
40515;SDS011;26216;53.724;9.898;2024-03-08T05:16:06;16.88;;;9.85;;
40515;SDS011;26216;53.724;9.898;2024-03-08T05:18:35;15.98;;;8.85;;
40515;SDS011;26216;53.724;9.898;2024-03-08T05:21:01;16.00;;;9.65;;
40515;SDS011;26216;53.724;9.898;2024-03-08T05:23:29;17.85;;;10.75;;
40515;SDS011;26216;53.724;9.898;2024-03-08T05:25:55;17.60;;;10.80;;
40515;SDS011;26216;53.724;9.898;2024-03-08T05:28:23;18.45;;;11.15;;
40515;SDS011;26216;53.724;9.898;2024-03-08T05:30:48;20.05;;;11.30;;
40515;SDS011;26216;53.724;9.898;2024-03-08T05:33:14;16.17;;;9.57;;
40515;SDS011;26216;53.724;9.898;2024-03-08T05:35:40;18.83;;;11.35;;
40515;SDS011;26216;53.724;9.898;2024-03-08T05:38:06;20.75;;;12.32;;
40515;SDS011;26216;53.724;9.898;2024-03-08T05:40:32;20.75;;;12.43;;
40515;SDS011;26216;53.724;9.898;2024-03-08T05:43:01;17.42;;;10.30;;
40515;SDS011;26216;53.724;9.898;2024-03-08T05:45:26;26.02;;;13.95;;
40515;SDS011;26216;53.724;9.898;2024-03-08T05:47:52;20.02;;;11.98;;
40515;SDS011;26216;53.724;9.898;2024-03-08T05:50:18;23.63;;;13.10;;
40515;SDS011;26216;53.724;9.898;2024-03-08T05:52:44;24.33;;;13.90;;
40515;SDS011;26216;53.724;9.898;2024-03-08T05:55:12;21.13;;;11.93;;
40515;SDS011;26216;53.724;9.898;2024-03-08T05:57:42;20.50;;;11.82;;
40515;SDS011;26216;53.724;9.898;2024-03-08T06:00:09;20.00;;;11.30;;
40515;SDS011;26216;53.724;9.898;2024-03-08T06:02:40;19.58;;;12.27;;
40515;SDS011;26216;53.724;9.898;2024-03-08T06:05:10;22.05;;;13.23;;
40515;SDS011;26216;53.724;9.898;2024-03-08T06:07:36;21.30;;;11.75;;
40515;SDS011;26216;53.724;9.898;2024-03-08T06:10:06;21.05;;;12.18;;
40515;SDS011;26216;53.724;9.898;2024-03-08T06:12:35;20.25;;;11.52;;
40515;SDS011;26216;53.724;9.898;2024-03-08T06:15:06;22.20;;;12.80;;
40515;SDS011;26216;53.724;9.898;2024-03-08T06:17:35;22.15;;;12.88;;
40515;SDS011;26216;53.724;9.898;2024-03-08T06:20:01;20.30;;;12.18;;
40515;SDS011;26216;53.724;9.898;2024-03-08T06:22:28;23.08;;;13.32;;
40515;SDS011;26216;53.724;9.898;2024-03-08T06:24:55;20.80;;;13.18;;
40515;SDS011;26216;53.724;9.898;2024-03-08T06:27:22;20.27;;;11.85;;
40515;SDS011;26216;53.724;9.898;2024-03-08T06:29:48;20.98;;;12.57;;
40515;SDS011;26216;53.724;9.898;2024-03-08T06:32:14;21.95;;;12.10;;
40515;SDS011;26216;53.724;9.898;2024-03-08T06:34:41;19.83;;;11.80;;
40515;SDS011;26216;53.724;9.898;2024-03-08T06:37:06;21.48;;;13.15;;
40515;SDS011;26216;53.724;9.898;2024-03-08T06:39:32;22.80;;;12.45;;
40515;SDS011;26216;53.724;9.898;2024-03-08T06:41:59;21.60;;;12.32;;
40515;SDS011;26216;53.724;9.898;2024-03-08T06:44:25;23.05;;;13.05;;
40515;SDS011;26216;53.724;9.898;2024-03-08T06:46:51;18.73;;;11.07;;
40515;SDS011;26216;53.724;9.898;2024-03-08T06:49:17;19.52;;;11.55;;
40515;SDS011;26216;53.724;9.898;2024-03-08T06:51:42;23.17;;;13.10;;
40515;SDS011;26216;53.724;9.898;2024-03-08T06:54:08;21.13;;;12.80;;
40515;SDS011;26216;53.724;9.898;2024-03-08T06:56:34;21.33;;;13.45;;
40515;SDS011;26216;53.724;9.898;2024-03-08T06:59:00;20.75;;;12.70;;
40515;SDS011;26216;53.724;9.898;2024-03-08T07:01:29;22.02;;;13.43;;
40515;SDS011;26216;53.724;9.898;2024-03-08T07:04:00;23.17;;;13.40;;
40515;SDS011;26216;53.724;9.898;2024-03-08T07:06:30;20.50;;;12.45;;
40515;SDS011;26216;53.724;9.898;2024-03-08T07:08:58;23.85;;;13.80;;
40515;SDS011;26216;53.724;9.898;2024-03-08T07:11:24;23.10;;;13.90;;
40515;SDS011;26216;53.724;9.898;2024-03-08T07:13:50;22.42;;;12.80;;
40515;SDS011;26216;53.724;9.898;2024-03-08T07:16:16;21.42;;;13.60;;
40515;SDS011;26216;53.724;9.898;2024-03-08T07:18:42;22.30;;;13.20;;
40515;SDS011;26216;53.724;9.898;2024-03-08T07:21:09;22.48;;;13.73;;
40515;SDS011;26216;53.724;9.898;2024-03-08T07:23:38;22.70;;;13.57;;
40515;SDS011;26216;53.724;9.898;2024-03-08T07:26:28;23.23;;;14.13;;
40515;SDS011;26216;53.724;9.898;2024-03-08T07:28:55;25.80;;;14.68;;
40515;SDS011;26216;53.724;9.898;2024-03-08T07:31:22;23.42;;;14.18;;
40515;SDS011;26216;53.724;9.898;2024-03-08T07:33:51;22.48;;;13.55;;
40515;SDS011;26216;53.724;9.898;2024-03-08T07:36:21;26.35;;;15.57;;
40515;SDS011;26216;53.724;9.898;2024-03-08T07:38:49;23.27;;;14.68;;
40515;SDS011;26216;53.724;9.898;2024-03-08T07:41:15;24.88;;;15.45;;
40515;SDS011;26216;53.724;9.898;2024-03-08T07:43:41;26.00;;;15.35;;
40515;SDS011;26216;53.724;9.898;2024-03-08T07:46:09;23.20;;;14.20;;
40515;SDS011;26216;53.724;9.898;2024-03-08T07:48:35;23.90;;;14.38;;
40515;SDS011;26216;53.724;9.898;2024-03-08T07:51:02;25.95;;;15.30;;
40515;SDS011;26216;53.724;9.898;2024-03-08T07:53:28;21.65;;;13.90;;
40515;SDS011;26216;53.724;9.898;2024-03-08T07:55:55;23.10;;;14.25;;
40515;SDS011;26216;53.724;9.898;2024-03-08T07:58:21;24.02;;;14.40;;
40515;SDS011;26216;53.724;9.898;2024-03-08T08:00:48;24.10;;;15.00;;
40515;SDS011;26216;53.724;9.898;2024-03-08T08:03:16;24.98;;;15.18;;
40515;SDS011;26216;53.724;9.898;2024-03-08T08:05:46;28.98;;;16.77;;
40515;SDS011;26216;53.724;9.898;2024-03-08T08:08:12;25.05;;;15.73;;
40515;SDS011;26216;53.724;9.898;2024-03-08T08:10:38;26.08;;;15.35;;
40515;SDS011;26216;53.724;9.898;2024-03-08T08:13:04;23.48;;;13.98;;
40515;SDS011;26216;53.724;9.898;2024-03-08T08:15:30;22.50;;;13.77;;
40515;SDS011;26216;53.724;9.898;2024-03-08T08:17:56;22.20;;;14.32;;
40515;SDS011;26216;53.724;9.898;2024-03-08T08:20:22;19.90;;;12.43;;
40515;SDS011;26216;53.724;9.898;2024-03-08T08:22:48;20.65;;;12.98;;
40515;SDS011;26216;53.724;9.898;2024-03-08T08:25:14;21.50;;;12.45;;
40515;SDS011;26216;53.724;9.898;2024-03-08T08:27:41;20.35;;;13.25;;
40515;SDS011;26216;53.724;9.898;2024-03-08T08:30:10;21.05;;;13.73;;
40515;SDS011;26216;53.724;9.898;2024-03-08T08:32:36;21.83;;;14.00;;
40515;SDS011;26216;53.724;9.898;2024-03-08T08:35:04;22.95;;;14.68;;
40515;SDS011;26216;53.724;9.898;2024-03-08T08:37:35;20.17;;;13.73;;
40515;SDS011;26216;53.724;9.898;2024-03-08T08:40:03;19.95;;;13.13;;
40515;SDS011;26216;53.724;9.898;2024-03-08T08:42:34;23.33;;;14.57;;
40515;SDS011;26216;53.724;9.898;2024-03-08T08:45:01;24.48;;;15.85;;
40515;SDS011;26216;53.724;9.898;2024-03-08T08:47:27;22.08;;;13.07;;
40515;SDS011;26216;53.724;9.898;2024-03-08T08:49:53;20.30;;;13.35;;
40515;SDS011;26216;53.724;9.898;2024-03-08T08:52:19;21.48;;;14.82;;
40515;SDS011;26216;53.724;9.898;2024-03-08T08:54:45;20.92;;;13.63;;
40515;SDS011;26216;53.724;9.898;2024-03-08T08:57:11;21.77;;;14.38;;
40515;SDS011;26216;53.724;9.898;2024-03-08T08:59:37;22.38;;;15.30;;
40515;SDS011;26216;53.724;9.898;2024-03-08T09:02:07;23.38;;;14.73;;
40515;SDS011;26216;53.724;9.898;2024-03-08T09:04:34;20.85;;;13.18;;
40515;SDS011;26216;53.724;9.898;2024-03-08T09:07:00;21.80;;;13.77;;
40515;SDS011;26216;53.724;9.898;2024-03-08T09:09:27;20.63;;;13.55;;
40515;SDS011;26216;53.724;9.898;2024-03-08T09:11:53;23.95;;;15.00;;
40515;SDS011;26216;53.724;9.898;2024-03-08T09:14:19;25.23;;;15.57;;
40515;SDS011;26216;53.724;9.898;2024-03-08T09:16:45;22.10;;;13.88;;
40515;SDS011;26216;53.724;9.898;2024-03-08T09:19:12;24.08;;;14.10;;
40515;SDS011;26216;53.724;9.898;2024-03-08T09:21:38;22.83;;;15.85;;
40515;SDS011;26216;53.724;9.898;2024-03-08T09:24:05;25.98;;;15.73;;
40515;SDS011;26216;53.724;9.898;2024-03-08T09:26:34;21.02;;;14.32;;
40515;SDS011;26216;53.724;9.898;2024-03-08T09:29:00;23.40;;;15.88;;
40515;SDS011;26216;53.724;9.898;2024-03-08T09:31:26;23.42;;;15.25;;
40515;SDS011;26216;53.724;9.898;2024-03-08T09:33:52;21.70;;;14.60;;
40515;SDS011;26216;53.724;9.898;2024-03-08T09:36:17;21.08;;;14.02;;
40515;SDS011;26216;53.724;9.898;2024-03-08T09:38:44;22.05;;;14.70;;
40515;SDS011;26216;53.724;9.898;2024-03-08T09:41:10;24.02;;;15.10;;
40515;SDS011;26216;53.724;9.898;2024-03-08T09:43:38;23.70;;;16.60;;
40515;SDS011;26216;53.724;9.898;2024-03-08T09:46:04;24.20;;;15.70;;
40515;SDS011;26216;53.724;9.898;2024-03-08T09:48:32;22.08;;;15.38;;
40515;SDS011;26216;53.724;9.898;2024-03-08T09:51:00;23.65;;;14.50;;
40515;SDS011;26216;53.724;9.898;2024-03-08T09:53:26;21.45;;;14.02;;
40515;SDS011;26216;53.724;9.898;2024-03-08T09:55:52;21.02;;;13.80;;
40515;SDS011;26216;53.724;9.898;2024-03-08T09:58:18;19.48;;;12.98;;
40515;SDS011;26216;53.724;9.898;2024-03-08T10:00:53;18.60;;;13.40;;
40515;SDS011;26216;53.724;9.898;2024-03-08T10:03:23;23.00;;;15.30;;
40515;SDS011;26216;53.724;9.898;2024-03-08T10:05:51;22.17;;;15.00;;
40515;SDS011;26216;53.724;9.898;2024-03-08T10:08:17;21.17;;;14.48;;
40515;SDS011;26216;53.724;9.898;2024-03-08T10:10:44;22.48;;;15.85;;
40515;SDS011;26216;53.724;9.898;2024-03-08T10:13:10;20.02;;;13.35;;
40515;SDS011;26216;53.724;9.898;2024-03-08T10:15:41;19.65;;;14.15;;
40515;SDS011;26216;53.724;9.898;2024-03-08T10:18:07;25.75;;;14.60;;
40515;SDS011;26216;53.724;9.898;2024-03-08T10:20:34;19.67;;;13.82;;
40515;SDS011;26216;53.724;9.898;2024-03-08T10:23:00;20.65;;;14.80;;
40515;SDS011;26216;53.724;9.898;2024-03-08T10:25:28;23.58;;;15.68;;
40515;SDS011;26216;53.724;9.898;2024-03-08T10:27:57;22.10;;;14.55;;
40515;SDS011;26216;53.724;9.898;2024-03-08T10:30:23;18.75;;;13.15;;
40515;SDS011;26216;53.724;9.898;2024-03-08T10:32:49;21.88;;;14.55;;
40515;SDS011;26216;53.724;9.898;2024-03-08T10:35:17;21.90;;;15.50;;
40515;SDS011;26216;53.724;9.898;2024-03-08T10:37:50;23.90;;;15.80;;
40515;SDS011;26216;53.724;9.898;2024-03-08T10:40:28;21.42;;;15.43;;
40515;SDS011;26216;53.724;9.898;2024-03-08T10:42:58;18.55;;;13.13;;
40515;SDS011;26216;53.724;9.898;2024-03-08T10:45:31;22.88;;;15.95;;
40515;SDS011;26216;53.724;9.898;2024-03-08T10:48:08;20.80;;;14.50;;
40515;SDS011;26216;53.724;9.898;2024-03-08T10:50:40;22.15;;;14.57;;
40515;SDS011;26216;53.724;9.898;2024-03-08T10:53:10;17.65;;;13.38;;
40515;SDS011;26216;53.724;9.898;2024-03-08T10:55:39;20.20;;;13.95;;
40515;SDS011;26216;53.724;9.898;2024-03-08T10:58:06;21.58;;;15.45;;
40515;SDS011;26216;53.724;9.898;2024-03-08T11:00:33;22.45;;;15.68;;
40515;SDS011;26216;53.724;9.898;2024-03-08T11:02:59;19.38;;;13.93;;
40515;SDS011;26216;53.724;9.898;2024-03-08T11:05:32;21.10;;;14.63;;
40515;SDS011;26216;53.724;9.898;2024-03-08T11:10:52;17.15;;;12.60;;
40515;SDS011;26216;53.724;9.898;2024-03-08T11:16:09;19.23;;;13.23;;
40515;SDS011;26216;53.724;9.898;2024-03-08T11:18:36;20.77;;;14.48;;
40515;SDS011;26216;53.724;9.898;2024-03-08T11:21:03;21.60;;;14.57;;
40515;SDS011;26216;53.724;9.898;2024-03-08T11:23:37;18.75;;;13.38;;
40515;SDS011;26216;53.724;9.898;2024-03-08T11:26:20;21.10;;;15.05;;
40515;SDS011;26216;53.724;9.898;2024-03-08T11:28:49;17.83;;;12.93;;
40515;SDS011;26216;53.724;9.898;2024-03-08T11:33:46;18.63;;;12.68;;
40515;SDS011;26216;53.724;9.898;2024-03-08T11:36:21;18.33;;;12.45;;
40515;SDS011;26216;53.724;9.898;2024-03-08T11:38:50;17.05;;;12.43;;
40515;SDS011;26216;53.724;9.898;2024-03-08T11:41:24;19.35;;;14.35;;
40515;SDS011;26216;53.724;9.898;2024-03-08T11:44:01;18.98;;;13.32;;
40515;SDS011;26216;53.724;9.898;2024-03-08T11:46:30;16.58;;;11.95;;
40515;SDS011;26216;53.724;9.898;2024-03-08T11:48:56;17.10;;;11.93;;
40515;SDS011;26216;53.724;9.898;2024-03-08T11:51:22;16.08;;;11.18;;
40515;SDS011;26216;53.724;9.898;2024-03-08T11:53:49;13.05;;;9.77;;
40515;SDS011;26216;53.724;9.898;2024-03-08T11:56:16;14.68;;;10.07;;
40515;SDS011;26216;53.724;9.898;2024-03-08T11:58:55;15.82;;;11.00;;
40515;SDS011;26216;53.724;9.898;2024-03-08T12:01:22;17.42;;;11.40;;
40515;SDS011;26216;53.724;9.898;2024-03-08T12:03:53;15.75;;;11.18;;
40515;SDS011;26216;53.724;9.898;2024-03-08T12:06:20;18.45;;;12.43;;
40515;SDS011;26216;53.724;9.898;2024-03-08T12:08:47;17.92;;;12.00;;
40515;SDS011;26216;53.724;9.898;2024-03-08T12:11:17;16.48;;;11.38;;
40515;SDS011;26216;53.724;9.898;2024-03-08T12:13:47;15.05;;;11.20;;
40515;SDS011;26216;53.724;9.898;2024-03-08T12:16:16;15.85;;;12.13;;
40515;SDS011;26216;53.724;9.898;2024-03-08T12:18:50;15.65;;;11.82;;
40515;SDS011;26216;53.724;9.898;2024-03-08T12:21:19;16.75;;;11.50;;
40515;SDS011;26216;53.724;9.898;2024-03-08T12:23:47;15.65;;;11.63;;
40515;SDS011;26216;53.724;9.898;2024-03-08T12:26:28;15.45;;;10.98;;
40515;SDS011;26216;53.724;9.898;2024-03-08T12:28:56;16.60;;;11.27;;
40515;SDS011;26216;53.724;9.898;2024-03-08T12:31:53;16.05;;;10.55;;
40515;SDS011;26216;53.724;9.898;2024-03-08T12:34:21;16.00;;;12.13;;
40515;SDS011;26216;53.724;9.898;2024-03-08T12:36:48;15.60;;;11.95;;
40515;SDS011;26216;53.724;9.898;2024-03-08T12:39:16;15.82;;;11.40;;
40515;SDS011;26216;53.724;9.898;2024-03-08T12:41:44;15.63;;;10.85;;
40515;SDS011;26216;53.724;9.898;2024-03-08T12:44:12;15.57;;;10.80;;
40515;SDS011;26216;53.724;9.898;2024-03-08T12:46:40;14.23;;;10.45;;
40515;SDS011;26216;53.724;9.898;2024-03-08T12:49:09;16.02;;;11.60;;
40515;SDS011;26216;53.724;9.898;2024-03-08T12:51:36;16.35;;;11.93;;
40515;SDS011;26216;53.724;9.898;2024-03-08T12:54:07;16.45;;;11.93;;
40515;SDS011;26216;53.724;9.898;2024-03-08T12:56:36;19.58;;;12.80;;
40515;SDS011;26216;53.724;9.898;2024-03-08T12:59:06;16.65;;;12.05;;
40515;SDS011;26216;53.724;9.898;2024-03-08T13:01:34;19.15;;;12.88;;
40515;SDS011;26216;53.724;9.898;2024-03-08T13:04:03;16.52;;;11.52;;
40515;SDS011;26216;53.724;9.898;2024-03-08T13:06:32;16.00;;;11.70;;
40515;SDS011;26216;53.724;9.898;2024-03-08T13:08:58;16.35;;;11.45;;
40515;SDS011;26216;53.724;9.898;2024-03-08T13:11:30;16.20;;;11.70;;
40515;SDS011;26216;53.724;9.898;2024-03-08T13:13:58;14.65;;;10.98;;
40515;SDS011;26216;53.724;9.898;2024-03-08T13:16:24;15.43;;;10.38;;
40515;SDS011;26216;53.724;9.898;2024-03-08T13:18:54;16.48;;;11.13;;
40515;SDS011;26216;53.724;9.898;2024-03-08T13:21:22;15.63;;;11.52;;
40515;SDS011;26216;53.724;9.898;2024-03-08T13:23:49;16.95;;;11.30;;
40515;SDS011;26216;53.724;9.898;2024-03-08T13:26:18;15.80;;;11.05;;
40515;SDS011;26216;53.724;9.898;2024-03-08T13:28:50;16.52;;;11.95;;
40515;SDS011;26216;53.724;9.898;2024-03-08T13:31:22;17.95;;;12.02;;
40515;SDS011;26216;53.724;9.898;2024-03-08T13:33:48;14.02;;;10.43;;
40515;SDS011;26216;53.724;9.898;2024-03-08T13:36:16;15.25;;;10.88;;
40515;SDS011;26216;53.724;9.898;2024-03-08T13:38:47;15.52;;;11.30;;
40515;SDS011;26216;53.724;9.898;2024-03-08T13:41:15;15.43;;;11.15;;
40515;SDS011;26216;53.724;9.898;2024-03-08T13:43:43;13.52;;;9.75;;
40515;SDS011;26216;53.724;9.898;2024-03-08T13:46:12;16.13;;;11.00;;
40515;SDS011;26216;53.724;9.898;2024-03-08T13:48:39;15.48;;;10.30;;
40515;SDS011;26216;53.724;9.898;2024-03-08T13:51:06;16.10;;;10.98;;
40515;SDS011;26216;53.724;9.898;2024-03-08T13:53:36;15.45;;;11.07;;
40515;SDS011;26216;53.724;9.898;2024-03-08T13:56:05;14.23;;;10.30;;
40515;SDS011;26216;53.724;9.898;2024-03-08T13:58:31;13.82;;;10.15;;
40515;SDS011;26216;53.724;9.898;2024-03-08T14:00:58;17.38;;;11.50;;
40515;SDS011;26216;53.724;9.898;2024-03-08T14:03:25;13.63;;;10.25;;
40515;SDS011;26216;53.724;9.898;2024-03-08T14:05:51;15.07;;;10.90;;
40515;SDS011;26216;53.724;9.898;2024-03-08T14:08:17;15.68;;;10.95;;
40515;SDS011;26216;53.724;9.898;2024-03-08T14:10:44;13.65;;;10.13;;
40515;SDS011;26216;53.724;9.898;2024-03-08T14:13:12;16.17;;;11.25;;
40515;SDS011;26216;53.724;9.898;2024-03-08T14:15:41;16.27;;;10.55;;
40515;SDS011;26216;53.724;9.898;2024-03-08T14:18:07;14.50;;;10.05;;
40515;SDS011;26216;53.724;9.898;2024-03-08T14:20:34;15.48;;;11.07;;
40515;SDS011;26216;53.724;9.898;2024-03-08T14:23:00;15.45;;;11.40;;
40515;SDS011;26216;53.724;9.898;2024-03-08T14:25:26;15.40;;;10.75;;
40515;SDS011;26216;53.724;9.898;2024-03-08T14:27:55;14.45;;;10.27;;
40515;SDS011;26216;53.724;9.898;2024-03-08T14:30:27;14.70;;;9.63;;
40515;SDS011;26216;53.724;9.898;2024-03-08T14:33:01;14.95;;;11.10;;
40515;SDS011;26216;53.724;9.898;2024-03-08T14:35:28;13.83;;;9.63;;
40515;SDS011;26216;53.724;9.898;2024-03-08T14:37:55;13.35;;;9.90;;